createdAt,value
2017-05-10T00:01:36.779Z,2.44
2017-05-10T00:04:03.397Z,2.78
2017-05-10T00:06:29.286Z,3.22
2017-05-10T00:08:55.179Z,3.76
2017-05-10T00:11:21.903Z,2.90
2017-05-10T00:13:48.510Z,2.80
2017-05-10T00:16:14.418Z,2.50
2017-05-10T00:18:40.300Z,3.44
2017-05-10T00:21:06.423Z,2.66
2017-05-10T00:23:32.304Z,2.02
2017-05-10T00:25:58.199Z,2.94
2017-05-10T00:28:24.097Z,2.58
2017-05-10T00:30:49.976Z,2.52
2017-05-10T00:33:16.671Z,3.84
2017-05-10T00:35:42.552Z,2.50
2017-05-10T00:38:08.445Z,3.00
2017-05-10T00:40:34.329Z,3.70
2017-05-10T00:43:00.363Z,3.44
2017-05-10T00:45:26.340Z,2.50
2017-05-10T00:47:52.228Z,2.44
2017-05-10T00:50:18.843Z,3.26
2017-05-10T00:52:44.750Z,2.64
2017-05-10T00:55:10.628Z,3.76
2017-05-10T00:57:36.599Z,2.64
2017-05-10T01:00:02.485Z,3.12
2017-05-10T01:02:28.377Z,2.50
2017-05-10T01:04:55.091Z,2.82
2017-05-10T01:07:20.971Z,3.20
2017-05-10T01:09:46.850Z,3.48
2017-05-10T01:12:13.463Z,2.68
2017-05-10T01:14:39.445Z,3.12
2017-05-10T01:17:05.466Z,3.60
2017-05-10T01:19:31.342Z,2.84
2017-05-10T01:21:57.960Z,4.02
2017-05-10T01:24:23.853Z,3.42
2017-05-10T01:26:49.731Z,3.82
2017-05-10T01:29:16.440Z,3.72
2017-05-10T01:31:42.350Z,4.60
2017-05-10T01:34:08.241Z,3.72
2017-05-10T01:36:34.213Z,4.28
2017-05-10T01:39:00.107Z,3.62
2017-05-10T01:41:26.067Z,3.44
2017-05-10T01:43:52.767Z,2.56
2017-05-10T01:46:18.655Z,4.22
2017-05-10T01:48:44.541Z,3.10
2017-05-10T01:51:11.159Z,2.96
2017-05-10T01:53:37.020Z,4.38
2017-05-10T01:56:03.124Z,3.72
2017-05-10T01:58:29.741Z,3.04
2017-05-10T02:00:55.606Z,4.12
2017-05-10T02:03:21.475Z,4.06
2017-05-10T02:05:47.378Z,3.70
2017-05-10T02:08:13.424Z,4.52
2017-05-10T02:10:39.307Z,4.42
2017-05-10T02:13:05.186Z,3.80
2017-05-10T02:15:31.062Z,4.24
2017-05-10T02:17:56.940Z,2.90
2017-05-10T02:20:22.916Z,2.72
2017-05-10T02:22:48.788Z,4.52
2017-05-10T02:25:14.659Z,4.30
2017-05-10T02:27:40.630Z,4.08
2017-05-10T02:30:06.508Z,3.92
2017-05-10T02:32:33.166Z,3.70
2017-05-10T02:34:59.047Z,4.76
2017-05-10T02:37:24.937Z,4.56
2017-05-10T02:39:50.892Z,4.12
2017-05-10T02:42:16.775Z,4.78
2017-05-10T02:44:42.752Z,3.62
2017-05-10T02:47:09.370Z,4.40
2017-05-10T02:49:35.263Z,5.26
2017-05-10T02:52:01.263Z,4.18
2017-05-10T02:54:27.281Z,3.34
2017-05-10T02:56:53.152Z,3.68
2017-05-10T02:59:19.030Z,3.30
2017-05-10T03:01:44.899Z,4.80
2017-05-10T03:04:11.515Z,3.82
2017-05-10T03:06:37.393Z,5.30
2017-05-10T03:09:03.269Z,5.26
2017-05-10T03:11:29.984Z,5.10
2017-05-10T03:13:55.865Z,4.42
2017-05-10T03:16:21.743Z,3.78
2017-05-10T03:18:48.369Z,5.80
2017-05-10T03:21:14.248Z,4.72
2017-05-10T03:23:40.728Z,4.26
2017-05-10T03:26:06.607Z,4.02
2017-05-10T03:28:32.493Z,3.90
2017-05-10T03:30:59.109Z,4.44
2017-05-10T03:33:25.725Z,4.80
2017-05-10T03:35:51.730Z,3.58
2017-05-10T03:38:17.599Z,4.00
2017-05-10T03:40:44.243Z,5.42
2017-05-10T03:43:10.211Z,4.80
2017-05-10T03:45:36.179Z,6.56
2017-05-10T03:48:02.933Z,4.54
2017-05-10T03:50:28.802Z,4.82
2017-05-10T03:52:54.684Z,4.80
2017-05-10T03:55:20.557Z,3.72
2017-05-10T03:57:47.183Z,6.70
2017-05-10T04:00:13.171Z,3.72
2017-05-10T04:02:39.048Z,5.46
2017-05-10T04:05:05.665Z,5.04
2017-05-10T04:07:31.546Z,6.08
2017-05-10T04:09:57.456Z,5.48
2017-05-10T04:12:23.413Z,6.16
2017-05-10T04:14:49.300Z,5.40
2017-05-10T04:17:15.183Z,5.10
2017-05-10T04:19:41.840Z,6.62
2017-05-10T04:22:07.697Z,7.44
2017-05-10T04:24:33.686Z,5.54
2017-05-10T04:26:59.569Z,5.90
2017-05-10T04:29:26.203Z,5.16
2017-05-10T04:31:52.820Z,5.16
2017-05-10T04:34:18.731Z,5.86
2017-05-10T04:36:44.757Z,7.96
2017-05-10T04:39:10.656Z,7.70
2017-05-10T04:41:36.542Z,8.36
2017-05-10T04:44:02.411Z,6.74
2017-05-10T04:46:28.302Z,4.58
2017-05-10T04:48:54.276Z,5.52
2017-05-10T04:51:20.179Z,7.04
2017-05-10T04:53:46.057Z,6.68
2017-05-10T04:56:11.954Z,6.90
2017-05-10T04:58:37.840Z,6.52
2017-05-10T05:01:03.814Z,5.94
2017-05-10T05:03:29.684Z,5.96
2017-05-10T05:05:55.553Z,7.00
2017-05-10T05:08:21.490Z,6.18
2017-05-10T05:10:47.373Z,5.70
2017-05-10T05:13:13.351Z,5.84
2017-05-10T05:15:39.243Z,5.78
2017-05-10T05:18:05.104Z,5.10
2017-05-10T05:20:31.005Z,7.04
2017-05-10T05:22:56.876Z,5.58
2017-05-10T05:25:22.846Z,6.90
2017-05-10T05:27:48.748Z,6.62
2017-05-10T05:30:14.635Z,8.08
2017-05-10T05:32:40.528Z,7.98
2017-05-10T05:35:07.137Z,6.74
2017-05-10T05:37:33.134Z,6.88
2017-05-10T05:39:59.710Z,6.06
2017-05-10T05:42:25.636Z,8.16
2017-05-10T05:44:51.502Z,7.90
2017-05-10T05:47:17.429Z,7.92
2017-05-10T05:49:43.370Z,5.42
2017-05-10T05:52:09.252Z,5.66
2017-05-10T05:54:35.165Z,5.68
2017-05-10T05:57:01.779Z,7.78
2017-05-10T05:59:28.384Z,5.64
2017-05-10T06:01:54.399Z,7.36
2017-05-10T06:04:20.273Z,6.38
2017-05-10T06:06:46.876Z,6.90
2017-05-10T06:09:12.752Z,4.58
2017-05-10T06:11:38.618Z,6.18
2017-05-10T06:14:04.621Z,5.90
2017-05-10T06:16:30.477Z,6.76
2017-05-10T06:18:57.110Z,6.26
2017-05-10T06:21:22.960Z,4.80
2017-05-10T06:23:48.853Z,5.68
2017-05-10T06:26:15.551Z,4.24
2017-05-10T06:28:41.441Z,4.00
2017-05-10T06:31:07.316Z,3.26
2017-05-10T06:33:33.201Z,4.02
2017-05-10T06:35:59.255Z,3.58
2017-05-10T06:38:25.256Z,6.20
2017-05-10T06:40:51.127Z,3.70
2017-05-10T06:43:16.994Z,3.00
2017-05-10T06:45:42.878Z,2.34
2017-05-10T06:48:08.895Z,3.06
2017-05-10T06:50:34.755Z,2.74
2017-05-10T06:53:00.633Z,2.94
2017-05-10T06:55:26.508Z,2.28
2017-05-10T06:57:52.391Z,2.84
2017-05-10T07:00:18.371Z,2.32
2017-05-10T07:02:44.972Z,3.92
2017-05-10T07:05:10.859Z,2.94
2017-05-10T07:07:36.731Z,3.34
2017-05-10T07:10:03.348Z,3.52
2017-05-10T07:12:29.334Z,2.70
2017-05-10T07:14:55.215Z,1.92
2017-05-10T07:17:21.838Z,1.80
2017-05-10T07:19:47.704Z,1.80
2017-05-10T07:22:13.599Z,2.50
2017-05-10T07:24:40.294Z,2.36
2017-05-10T07:27:06.184Z,1.94
2017-05-10T07:29:32.073Z,2.06
2017-05-10T07:31:58.731Z,1.88
2017-05-10T07:34:24.689Z,2.70
2017-05-10T07:36:50.667Z,2.70
2017-05-10T07:39:16.531Z,2.24
2017-05-10T07:41:42.428Z,2.12
2017-05-10T07:44:08.401Z,1.64
2017-05-10T07:46:34.348Z,1.86
2017-05-10T07:49:00.233Z,1.76
2017-05-10T07:51:26.114Z,2.36
2017-05-10T07:53:52.013Z,1.96
2017-05-10T07:56:17.978Z,2.10
2017-05-10T07:58:43.884Z,1.14
2017-05-10T08:01:09.763Z,1.74
2017-05-10T08:03:35.644Z,1.80
2017-05-10T08:06:01.531Z,1.98
2017-05-10T08:08:27.484Z,1.84
2017-05-10T08:10:53.353Z,1.76
2017-05-10T08:13:19.247Z,2.10
2017-05-10T08:15:45.895Z,2.06
2017-05-10T08:18:11.759Z,1.96
2017-05-10T08:20:37.747Z,2.28
2017-05-10T08:23:03.660Z,1.80
2017-05-10T08:25:29.789Z,2.38
2017-05-10T08:27:55.667Z,2.04
2017-05-10T08:30:21.562Z,1.94
2017-05-10T08:32:47.523Z,2.34
2017-05-10T08:35:14.151Z,2.26
2017-05-10T08:37:40.765Z,2.34
2017-05-10T08:40:06.652Z,1.90
2017-05-10T08:42:32.603Z,3.08
2017-05-10T08:44:58.526Z,2.00
2017-05-10T08:47:24.364Z,2.68
2017-05-10T08:49:50.988Z,2.38
2017-05-10T08:52:16.855Z,2.32
2017-05-10T08:54:42.835Z,2.74
2017-05-10T08:57:08.743Z,2.52
2017-05-10T08:59:34.649Z,2.04
2017-05-10T09:02:00.520Z,2.58
2017-05-10T09:04:26.462Z,3.12
2017-05-10T09:06:52.431Z,2.40
2017-05-10T09:09:18.292Z,3.00
2017-05-10T09:11:44.252Z,3.28
2017-05-10T09:14:10.170Z,3.50
2017-05-10T09:16:36.091Z,2.96
2017-05-10T09:19:01.964Z,3.38
2017-05-10T09:21:27.840Z,3.02
2017-05-10T09:23:53.803Z,3.26
2017-05-10T09:26:19.677Z,3.66
2017-05-10T09:28:45.551Z,2.90
2017-05-10T09:31:11.424Z,2.84
2017-05-10T09:33:37.292Z,3.32
2017-05-10T09:36:03.264Z,2.98
2017-05-10T09:38:29.168Z,2.94
2017-05-10T09:40:55.070Z,2.80
2017-05-10T09:43:20.935Z,3.52
2017-05-10T09:45:47.553Z,4.00
2017-05-10T09:48:13.555Z,3.68
2017-05-10T09:50:39.424Z,3.70
2017-05-10T09:53:06.040Z,3.38
2017-05-10T09:55:31.958Z,3.82
2017-05-10T09:57:57.828Z,4.04
2017-05-10T10:00:23.819Z,3.62
2017-05-10T10:02:50.541Z,3.48
2017-05-10T10:05:16.434Z,3.80
2017-05-10T10:07:42.439Z,3.76
2017-05-10T10:10:08.304Z,4.70
2017-05-10T10:12:34.346Z,3.80
2017-05-10T10:15:00.959Z,4.76
2017-05-10T10:17:26.823Z,3.52
2017-05-10T10:19:52.884Z,4.56
2017-05-10T10:22:18.753Z,4.64
2017-05-10T10:24:44.632Z,4.18
2017-05-10T10:27:10.501Z,4.84
2017-05-10T10:29:36.378Z,4.40
2017-05-10T10:32:02.380Z,4.56
2017-05-10T10:34:28.252Z,3.80
2017-05-10T10:36:54.132Z,4.90
2017-05-10T10:39:20.010Z,4.60
2017-05-10T10:41:45.888Z,4.96
2017-05-10T10:44:12.606Z,4.78
2017-05-10T10:46:38.478Z,4.70
2017-05-10T10:49:04.384Z,5.10
2017-05-10T10:51:30.993Z,5.02
2017-05-10T10:53:56.865Z,4.54
2017-05-10T10:56:22.824Z,4.18
2017-05-10T10:58:48.690Z,4.26
2017-05-10T11:01:14.552Z,5.18
2017-05-10T11:03:40.419Z,5.14
2017-05-10T11:06:06.289Z,4.92
2017-05-10T11:08:32.275Z,4.72
2017-05-10T11:10:58.140Z,5.28
2017-05-10T11:13:24.021Z,4.72
2017-05-10T11:15:49.882Z,5.70
2017-05-10T11:18:15.753Z,4.98
2017-05-10T11:20:41.732Z,5.34
2017-05-10T11:23:08.373Z,6.08
2017-05-10T11:25:34.991Z,6.66
2017-05-10T11:28:00.943Z,6.34
2017-05-10T11:30:27.553Z,5.68
2017-05-10T11:32:53.419Z,5.94
2017-05-10T11:35:19.350Z,5.42
2017-05-10T11:37:45.324Z,5.54
2017-05-10T11:40:11.944Z,5.50
2017-05-10T11:42:37.819Z,5.32
2017-05-10T11:45:03.705Z,4.22
2017-05-10T11:47:30.341Z,5.76
2017-05-10T11:49:57.050Z,5.02
2017-05-10T11:52:22.927Z,5.22
2017-05-10T11:54:48.803Z,6.06
2017-05-10T11:57:14.684Z,6.18
2017-05-10T11:59:40.672Z,5.12
2017-05-10T12:02:07.295Z,5.38
2017-05-10T12:04:33.160Z,6.40
2017-05-10T12:06:59.023Z,6.16
2017-05-10T12:09:25.079Z,6.58
2017-05-10T12:11:51.705Z,5.70
2017-05-10T12:14:18.300Z,5.36
2017-05-10T12:16:44.169Z,5.96
2017-05-10T12:19:10.144Z,7.90
2017-05-10T12:21:36.032Z,5.70
2017-05-10T12:24:01.893Z,6.30
2017-05-10T12:26:27.883Z,6.02
2017-05-10T12:28:53.892Z,6.46
2017-05-10T12:31:19.768Z,5.96
2017-05-10T12:33:45.639Z,6.56
2017-05-10T12:36:11.504Z,5.40
2017-05-10T12:38:38.227Z,6.52
2017-05-10T12:41:04.118Z,5.60
2017-05-10T12:43:30.029Z,6.98
2017-05-10T12:45:56.627Z,5.66
2017-05-10T12:48:22.498Z,5.56
2017-05-10T12:50:48.488Z,5.56
2017-05-10T12:53:15.122Z,5.58
2017-05-10T12:55:41.736Z,6.40
2017-05-10T12:58:07.637Z,5.60
2017-05-10T13:00:33.548Z,6.28
2017-05-10T13:02:59.533Z,5.84
2017-05-10T13:05:25.397Z,6.44
2017-05-10T13:07:51.281Z,5.64
2017-05-10T13:10:17.151Z,6.28
2017-05-10T13:12:43.025Z,5.78
2017-05-10T13:15:08.979Z,6.94
2017-05-10T13:17:34.851Z,6.24
2017-05-10T13:20:00.731Z,5.76
2017-05-10T13:22:26.597Z,6.62
2017-05-10T13:24:52.464Z,5.26
2017-05-10T13:27:18.452Z,6.48
2017-05-10T13:29:44.524Z,6.92
2017-05-10T13:32:11.138Z,5.98
2017-05-10T13:34:37.011Z,6.42
2017-05-10T13:37:02.878Z,7.00
2017-05-10T13:39:28.830Z,6.14
2017-05-10T13:41:55.433Z,5.50
2017-05-10T13:44:21.403Z,7.44
2017-05-10T13:46:48.016Z,5.62
2017-05-10T13:49:14.644Z,5.20
2017-05-10T13:51:40.717Z,6.10
2017-05-10T13:54:06.580Z,6.06
2017-05-10T13:56:32.476Z,6.00
2017-05-10T13:58:58.371Z,5.60
2017-05-10T14:01:24.242Z,6.58
2017-05-10T14:03:50.268Z,6.00
2017-05-10T14:06:16.186Z,5.00
2017-05-10T14:08:42.039Z,6.40
2017-05-10T14:11:07.910Z,5.84
2017-05-10T14:13:33.833Z,5.98
2017-05-10T14:15:59.713Z,5.90
2017-05-10T14:18:25.603Z,6.28
2017-05-10T14:20:52.302Z,6.92
2017-05-10T14:23:18.303Z,5.92
2017-05-10T14:25:44.175Z,6.28
2017-05-10T14:28:10.793Z,6.50
2017-05-10T14:30:36.781Z,6.54
2017-05-10T14:33:02.824Z,6.72
2017-05-10T14:35:28.698Z,6.10
2017-05-10T14:37:55.312Z,6.40
2017-05-10T14:40:21.179Z,6.00
2017-05-10T14:42:47.055Z,5.68
2017-05-10T14:45:13.046Z,5.68
2017-05-10T14:47:38.927Z,6.98
2017-05-10T14:50:04.835Z,6.68
2017-05-10T14:52:31.441Z,6.22
2017-05-10T14:54:57.308Z,5.66
2017-05-10T14:57:23.280Z,7.04
2017-05-10T14:59:49.158Z,6.26
2017-05-10T15:02:15.024Z,6.40
2017-05-10T15:04:40.907Z,6.44
2017-05-10T15:07:06.779Z,5.84
2017-05-10T15:09:33.540Z,6.26
2017-05-10T15:11:59.401Z,6.64
2017-05-10T15:16:58.604Z,6.78
2017-05-10T15:19:24.476Z,6.72
2017-05-10T15:21:51.196Z,6.32
2017-05-10T15:24:17.062Z,7.66
2017-05-10T15:26:42.939Z,6.80
2017-05-10T15:29:09.552Z,6.70
2017-05-10T15:31:35.537Z,7.20
2017-05-10T15:34:01.521Z,7.08
2017-05-10T15:36:28.127Z,5.82
2017-05-10T15:38:54.021Z,6.16
2017-05-10T15:41:19.979Z,6.06
2017-05-10T15:43:45.874Z,7.00
2017-05-10T15:46:11.750Z,7.10
2017-05-10T15:48:38.359Z,5.66
2017-05-10T15:51:04.233Z,7.10
2017-05-10T15:53:30.200Z,6.80
2017-05-10T15:55:56.060Z,7.72
2017-05-10T15:58:22.038Z,6.50
2017-05-10T16:00:47.955Z,6.88
2017-05-10T16:03:13.835Z,8.10
2017-05-10T16:05:39.801Z,8.32
2017-05-10T16:08:05.682Z,7.42
2017-05-10T16:10:31.576Z,7.24
2017-05-10T16:12:58.193Z,6.50
2017-05-10T16:15:24.062Z,6.50
2017-05-10T16:17:50.089Z,6.32
2017-05-10T16:20:15.957Z,6.90
2017-05-10T16:22:42.573Z,7.00
2017-05-10T16:25:08.484Z,7.40
2017-05-10T16:27:34.343Z,7.38
2017-05-10T16:30:01.127Z,7.28
2017-05-10T16:32:27.044Z,7.14
2017-05-10T16:34:52.927Z,7.26
2017-05-10T16:37:19.601Z,8.02
2017-05-10T16:39:45.450Z,6.78
2017-05-10T16:42:11.414Z,6.84
2017-05-10T16:44:38.142Z,6.74
2017-05-10T16:47:04.763Z,7.92
2017-05-10T16:49:30.712Z,7.82
2017-05-10T16:51:56.612Z,5.58
2017-05-10T16:54:23.247Z,7.64
2017-05-10T16:56:49.124Z,7.42
2017-05-10T16:59:14.996Z,7.56
2017-05-10T17:01:41.696Z,6.84
2017-05-10T17:04:07.564Z,7.38
2017-05-10T17:06:34.192Z,6.78
2017-05-10T17:09:00.823Z,7.68
2017-05-10T17:11:27.435Z,7.58
2017-05-10T17:13:53.413Z,7.18
2017-05-10T17:16:19.300Z,7.68
2017-05-10T17:18:45.175Z,6.96
2017-05-10T17:21:11.057Z,6.16
2017-05-10T17:23:37.660Z,6.96
2017-05-10T17:26:03.812Z,6.42
2017-05-10T17:28:30.422Z,7.00
2017-05-10T17:30:56.300Z,6.80
2017-05-10T17:33:22.172Z,7.44
2017-05-10T17:35:48.044Z,7.02
2017-05-10T17:38:14.024Z,7.26
2017-05-10T17:40:40.628Z,7.84
2017-05-10T17:43:06.491Z,6.80
2017-05-10T17:45:32.376Z,7.12
2017-05-10T17:47:58.264Z,8.10
2017-05-10T17:50:24.247Z,8.10
2017-05-10T17:52:50.887Z,7.20
2017-05-10T17:55:17.580Z,6.84
2017-05-10T17:57:43.457Z,7.22
2017-05-10T18:00:09.408Z,6.30
2017-05-10T18:02:35.376Z,7.16
2017-05-10T18:05:01.986Z,7.16
2017-05-10T18:07:27.870Z,8.02
2017-05-10T18:09:53.744Z,6.66
2017-05-10T18:12:19.624Z,7.12
2017-05-10T18:14:45.583Z,7.10
2017-05-10T18:17:11.472Z,6.84
2017-05-10T18:19:37.360Z,7.70
2017-05-10T18:22:03.230Z,6.82
2017-05-10T18:24:29.122Z,8.16
2017-05-10T18:26:55.204Z,6.62
2017-05-10T18:29:21.852Z,6.78
2017-05-10T18:31:47.705Z,8.08
2017-05-10T18:34:13.742Z,7.18
2017-05-10T18:36:39.634Z,6.94
2017-05-10T18:39:05.602Z,7.68
2017-05-10T18:41:31.502Z,6.60
2017-05-10T18:43:57.403Z,7.00
2017-05-10T18:46:23.253Z,7.22
2017-05-10T18:48:49.128Z,6.82
2017-05-10T18:51:15.119Z,7.00
2017-05-10T18:53:41.737Z,6.36
2017-05-10T18:56:07.607Z,7.02
2017-05-10T18:58:33.496Z,7.04
2017-05-10T19:01:00.116Z,6.70
2017-05-10T19:03:26.117Z,7.44
2017-05-10T19:05:51.980Z,6.74
2017-05-10T19:08:18.639Z,6.66
2017-05-10T19:10:44.519Z,6.30
2017-05-10T19:13:11.156Z,7.02
2017-05-10T19:15:37.188Z,6.66
2017-05-10T19:18:03.802Z,6.24
2017-05-10T19:20:29.665Z,7.36
2017-05-10T19:22:56.273Z,6.64
2017-05-10T19:25:22.370Z,5.94
2017-05-10T19:27:48.251Z,7.22
2017-05-10T19:30:14.132Z,6.78
2017-05-10T19:32:40.834Z,6.60
2017-05-10T19:35:06.807Z,7.36
2017-05-10T19:37:33.431Z,6.86
2017-05-10T19:39:59.357Z,7.94
2017-05-10T19:42:25.990Z,6.30
2017-05-10T19:44:51.959Z,7.06
2017-05-10T19:47:17.829Z,7.48
2017-05-10T19:49:43.723Z,6.78
2017-05-10T19:52:09.599Z,7.40
2017-05-10T19:54:35.491Z,8.74
2017-05-10T19:57:01.440Z,6.32
2017-05-10T19:59:27.330Z,8.08
2017-05-10T20:01:53.216Z,6.76
2017-05-10T20:04:19.097Z,7.04
2017-05-10T20:06:44.983Z,6.48
2017-05-10T20:09:10.949Z,5.84
2017-05-10T20:11:36.820Z,8.04
2017-05-10T20:14:02.728Z,8.04
2017-05-10T20:16:28.603Z,8.36
2017-05-10T20:18:54.557Z,6.42
2017-05-10T20:21:20.578Z,7.98
2017-05-10T20:23:46.535Z,8.02
2017-05-10T20:26:12.425Z,9.14
2017-05-10T20:28:38.351Z,8.64
2017-05-10T20:31:04.346Z,8.06
2017-05-10T20:33:30.223Z,8.60
2017-05-10T20:35:57.003Z,7.30
2017-05-10T20:38:22.869Z,9.78
2017-05-10T20:40:48.747Z,9.36
2017-05-10T20:43:14.737Z,9.24
2017-05-10T20:45:41.359Z,8.60
2017-05-10T20:48:07.234Z,9.58
2017-05-10T20:50:33.105Z,7.96
2017-05-10T20:52:59.734Z,7.72
2017-05-10T20:55:25.700Z,8.16
2017-05-10T20:57:51.581Z,8.80
2017-05-10T21:00:18.230Z,9.04
2017-05-10T21:02:44.106Z,8.80
2017-05-10T21:05:09.979Z,7.50
2017-05-10T21:07:35.969Z,9.24
2017-05-10T21:10:01.863Z,10.02
2017-05-10T21:12:27.745Z,9.52
2017-05-10T21:14:53.679Z,8.02
2017-05-10T21:17:19.537Z,9.68
2017-05-10T21:19:45.509Z,9.08
2017-05-10T21:22:11.388Z,7.56
2017-05-10T21:24:37.344Z,9.50
2017-05-10T21:27:03.308Z,8.98
2017-05-10T21:29:29.177Z,8.44
2017-05-10T21:31:55.045Z,9.22
2017-05-10T21:34:20.928Z,8.22
2017-05-10T21:36:46.968Z,8.74
2017-05-10T21:39:12.868Z,7.94
2017-05-10T21:41:38.740Z,6.06
2017-05-10T21:44:04.628Z,6.04
2017-05-10T21:46:30.547Z,6.72
2017-05-10T21:48:56.503Z,6.30
2017-05-10T21:51:22.387Z,6.20
2017-05-10T21:53:48.264Z,7.40
2017-05-10T21:56:14.888Z,7.94
2017-05-10T21:58:40.751Z,4.88
2017-05-10T22:01:06.788Z,6.84
2017-05-10T22:03:32.654Z,5.90
2017-05-10T22:05:59.270Z,7.10
2017-05-10T22:08:25.149Z,6.02
2017-05-10T22:10:51.055Z,6.26
2017-05-10T22:13:17.747Z,6.10
2017-05-10T22:15:43.641Z,6.98
2017-05-10T22:18:09.504Z,6.20
2017-05-10T22:20:36.129Z,6.40
2017-05-10T22:23:02.005Z,7.58
2017-05-10T22:25:28.013Z,8.16
2017-05-10T22:27:53.881Z,7.22
2017-05-10T22:30:19.764Z,6.88
2017-05-10T22:32:45.649Z,7.30
2017-05-10T22:35:12.260Z,7.28
2017-05-10T22:37:38.284Z,8.66
2017-05-10T22:40:04.147Z,6.84
2017-05-10T22:42:30.019Z,6.38
2017-05-10T22:44:55.896Z,6.92
2017-05-10T22:47:22.672Z,7.50
2017-05-10T22:49:48.620Z,6.90
2017-05-10T22:52:15.790Z,6.62
2017-05-10T22:54:41.115Z,9.58
2017-05-10T22:57:07.008Z,6.66
2017-05-10T22:59:33.612Z,7.32
2017-05-10T23:01:59.585Z,7.78
2017-05-10T23:04:25.450Z,7.26
2017-05-10T23:06:51.340Z,7.74
2017-05-10T23:09:17.230Z,7.80
2017-05-10T23:11:44.032Z,6.32
2017-05-10T23:14:09.992Z,5.90
2017-05-10T23:16:36.606Z,6.60
2017-05-10T23:19:03.216Z,6.60
2017-05-10T23:21:29.096Z,6.00
2017-05-10T23:23:55.315Z,6.12
2017-05-10T23:26:21.277Z,6.72
2017-05-10T23:28:47.147Z,7.50
2017-05-10T23:31:13.750Z,6.94
2017-05-10T23:33:39.639Z,6.12
2017-05-10T23:36:05.540Z,6.98
2017-05-10T23:38:31.502Z,5.46
2017-05-10T23:40:57.380Z,7.80
2017-05-10T23:43:23.269Z,7.00
2017-05-10T23:45:49.910Z,6.10
2017-05-10T23:48:16.528Z,6.70
2017-05-10T23:50:42.499Z,6.96
2017-05-10T23:53:08.358Z,8.30
2017-05-10T23:55:34.916Z,7.42
2017-05-10T23:58:00.783Z,7.30
